Time;durP1;ratioP1;P1;durP2;ratioP2;P2;SDS_P1;SDS_P2;PMS_P1;PMS_P2;Temp;Humidity;BMP_temperature;BMP_pressure;BME280_temperature;BME280_humidity;BME280_pressure;Samples;Min_cycle;Max_cycle;Signal;HPM_P1;HPM_P2
2022/12/28 00:00:05;;;;;;;;;;;;;;;-7.01;64.85;97796.63;6299202;28;19927;-68
2022/12/28 00:03:06;;;;;;;;;;;;;;;-7.14;64.55;97804.88;6298746;28;19974;-67
2022/12/28 00:06:08;;;;;;;;;;;;;;;-7.19;64.58;97801.38;6299204;28;20293;-68
2022/12/28 00:09:11;;;;;;;;;;;;;;;-7.27;64.63;97799.53;6298888;28;19920;-67
2022/12/28 00:12:14;;;;;;;;;;;;;;;-7.37;64.04;97805.28;6299008;28;19919;-67
2022/12/28 00:15:18;;;;;;;;;;;;;;;-7.43;64.35;97805.19;6299027;28;20381;-67
2022/12/28 00:18:19;;;;;;;;;;;;;;;-7.53;64.27;97811.81;6298215;28;19924;-67
2022/12/28 00:21:22;;;;;;;;;;;;;;;-7.58;64.20;97817.66;6297885;28;19920;-68
2022/12/28 00:24:26;;;;;;;;;;;;;;;-7.56;63.85;97805.75;6298650;28;19926;-68
2022/12/28 00:27:27;;;;;;;;;;;;;;;-7.69;63.96;97800.38;6298225;28;20011;-67
2022/12/28 00:30:33;;;;;;;;;;;;;;;-7.76;63.75;97793.41;6298606;28;20022;-67
2022/12/28 00:33:37;;;;;;;;;;;;;;;-7.82;64.07;97789.84;6298648;28;19920;-68
2022/12/28 00:36:40;;;;;;;;;;;;;;;-7.86;64.20;97801.72;6298452;28;19928;-67
2022/12/28 00:39:41;;;;;;;;;;;;;;;-7.86;63.77;97801.72;6298376;28;19924;-68
2022/12/28 00:42:42;;;;;;;;;;;;;;;-7.87;63.78;97802.50;6297757;28;19926;-66
2022/12/28 00:45:46;;;;;;;;;;;;;;;-7.88;63.78;97800.81;6298168;28;19920;-67
2022/12/28 00:48:49;;;;;;;;;;;;;;;-7.86;64.04;97796.59;6298220;28;19921;-68
2022/12/28 00:51:53;;;;;;;;;;;;;;;-7.87;63.60;97799.09;6298062;28;19920;-67
2022/12/28 00:54:59;;;;;;;;;;;;;;;-7.96;63.36;97804.88;6297964;28;20010;-67
2022/12/28 00:58:02;;;;;;;;;;;;;;;-7.95;63.42;97801.50;6297724;28;19943;-67
2022/12/28 01:01:10;;;;;;;;;;;;;;;-7.95;63.39;97797.25;6297594;28;19998;-67
2022/12/28 01:04:12;;;;;;;;;;;;;;;-7.92;63.43;97801.56;6297807;28;20453;-67
2022/12/28 01:07:20;;;;;;;;;;;;;;;-7.90;63.38;97805.00;6297693;28;20022;-67
2022/12/28 01:10:23;;;;;;;;;;;;;;;-7.87;63.52;97810.19;6297577;28;20290;-68
2022/12/28 01:13:25;;;;;;;;;;;;;;;-7.82;63.19;97806.03;6297560;28;20019;-67
2022/12/28 01:16:29;;;;;;;;;;;;;;;-7.80;63.25;97816.31;6297028;28;19927;-68
2022/12/28 01:19:32;;;;;;;;;;;;;;;-7.79;62.99;97813.78;6297540;28;19920;-68
2022/12/28 01:22:36;;;;;;;;;;;;;;;-7.85;62.98;97808.53;6297263;28;20301;-68
2022/12/28 01:25:39;;;;;;;;;;;;;;;-7.86;63.25;97809.38;6297142;28;20069;-67
2022/12/28 01:28:45;;;;;;;;;;;;;;;-7.86;63.08;97806.81;6297121;28;20436;-68
2022/12/28 01:31:48;;;;;;;;;;;;;;;-7.87;63.21;97812.72;6297047;28;19955;-68
2022/12/28 01:34:52;;;;;;;;;;;;;;;-7.88;63.79;97815.28;6296747;28;19920;-69
2022/12/28 01:37:55;;;;;;;;;;;;;;;-7.86;63.54;97822.16;6296888;28;20298;-68
2022/12/28 01:40:56;;;;;;;;;;;;;;;-7.94;63.30;97809.19;6294840;28;19921;-67
2022/12/28 01:43:57;;;;;;;;;;;;;;;-7.89;63.54;97811.84;6296310;28;19927;-67
2022/12/28 01:47:03;;;;;;;;;;;;;;;-8.04;63.89;97811.50;6296768;28;19993;-67
2022/12/28 01:50:11;;;;;;;;;;;;;;;-8.11;63.95;97814.75;6296390;28;19921;-68
2022/12/28 01:53:17;;;;;;;;;;;;;;;-8.23;64.29;97811.06;6296767;28;19920;-68
2022/12/28 01:56:19;;;;;;;;;;;;;;;-8.25;64.10;97807.63;6295540;28;20019;-67
2022/12/28 01:59:25;;;;;;;;;;;;;;;-8.32;64.05;97809.97;6296446;28;19920;-67
2022/12/28 02:02:29;;;;;;;;;;;;;;;-8.38;64.14;97818.34;6296477;28;20011;-67
2022/12/28 02:05:35;;;;;;;;;;;;;;;-8.46;64.50;97807.16;6296247;28;19921;-67
2022/12/28 02:08:40;;;;;;;;;;;;;;;-8.50;64.48;97807.88;6296322;28;19925;-68
2022/12/28 02:11:42;;;;;;;;;;;;;;;-8.62;63.80;97809.31;6296261;28;19927;-68
2022/12/28 02:14:45;;;;;;;;;;;;;;;-8.66;64.40;97804.06;6295663;28;19928;-67
2022/12/28 02:17:49;;;;;;;;;;;;;;;-8.85;63.80;97802.75;6296445;28;19921;-69
2022/12/28 02:21:08;;;;;;;;;;;;;;;-9.07;64.21;97807.28;6295875;28;19920;-68
2022/12/28 02:24:15;;;;;;;;;;;;;;;-9.26;64.52;97803.34;6295984;28;19928;-69
2022/12/28 02:27:26;;;;;;;;;;;;;;;-9.47;64.37;97809.56;6296082;28;19967;-68
2022/12/28 02:30:29;;;;;;;;;;;;;;;-9.60;64.69;97808.31;6295890;28;20019;-68
2022/12/28 02:33:47;;;;;;;;;;;;;;;-9.63;65.22;97811.66;6295700;28;20294;-68
2022/12/28 02:37:04;;;;;;;;;;;;;;;-9.64;64.87;97807.38;6295886;28;19924;-68
2022/12/28 02:40:12;;;;;;;;;;;;;;;-9.67;65.21;97812.38;6295470;28;19927;-68
2022/12/28 02:43:14;;;;;;;;;;;;;;;-9.62;65.14;97810.84;6294434;28;20301;-68
2022/12/28 02:53:27;;;;;;;;;;;;;;;-9.40;64.86;97811.44;6300159;28;19921;-67
2022/12/28 02:56:28;;;;;;;;;;;;;;;-9.31;65.04;97816.81;6299824;28;20058;-67
2022/12/28 03:00:05;;;;;;;;;;;;;;;-9.23;64.45;97814.47;6299791;28;19920;-67
2022/12/28 03:03:25;;;;;;;;;;;;;;;-9.19;64.53;97804.41;6225542;28;19928;-67
2022/12/28 03:09:55;;;;;;;;;;;;;;;-9.17;64.66;97815.50;6299858;28;19923;-68
2022/12/28 03:13:41;;;;;;;;;;;;;;;-9.18;64.19;97818.00;6299831;28;19920;-68
2022/12/28 03:25:41;;;;;;;;;;;;;;;-9.19;64.75;97817.16;6299436;28;19923;-69
2022/12/28 03:33:28;;;;;;;;;;;;;;;-9.15;64.63;97815.53;6299018;28;19924;-68
2022/12/28 03:36:32;;;;;;;;;;;;;;;-9.17;64.31;97815.50;6299735;28;20316;-68
2022/12/28 03:39:37;;;;;;;;;;;;;;;-9.19;64.37;97817.16;6299702;28;19920;-68
2022/12/28 03:46:09;;;;;;;;;;;;;;;-9.25;64.24;97811.88;6299460;28;19920;-68
2022/12/28 03:49:13;;;;;;;;;;;;;;;-9.29;64.20;97804.97;6299027;28;19924;-69
2022/12/28 03:52:19;;;;;;;;;;;;;;;-9.32;64.35;97812.53;6299479;28;20313;-67
2022/12/28 03:55:25;;;;;;;;;;;;;;;-9.33;64.65;97815.91;6299289;28;19920;-68
2022/12/28 03:58:30;;;;;;;;;;;;;;;-9.31;64.64;97809.19;6299282;28;20411;-68
2022/12/28 04:01:31;;;;;;;;;;;;;;;-9.41;64.64;97815.69;6299202;28;19987;-68
2022/12/28 04:04:39;;;;;;;;;;;;;;;-9.49;64.70;97817.13;6298581;28;19928;-68
2022/12/28 04:07:43;;;;;;;;;;;;;;;-9.59;64.95;97818.56;6299223;28;19920;-69
2022/12/28 04:10:45;;;;;;;;;;;;;;;-9.59;64.62;97821.13;6298604;28;19920;-68
2022/12/28 04:13:46;;;;;;;;;;;;;;;-9.66;64.65;97826.84;6298450;28;19946;-69
2022/12/28 04:16:49;;;;;;;;;;;;;;;-9.70;64.84;97829.28;6298978;28;20336;-68
2022/12/28 04:19:52;;;;;;;;;;;;;;;-9.74;65.00;97815.56;6298655;28;19928;-67
2022/12/28 04:22:56;;;;;;;;;;;;;;;-9.79;64.88;97823.09;6296031;28;20042;-68
2022/12/28 04:26:00;;;;;;;;;;;;;;;-9.80;64.89;97815.38;6298210;28;19924;-68
2022/12/28 04:29:04;;;;;;;;;;;;;;;-9.84;65.07;97813.56;6298155;28;20058;-68
2022/12/28 04:32:08;;;;;;;;;;;;;;;-9.89;65.00;97820.22;6298564;28;19924;-69
2022/12/28 04:35:09;;;;;;;;;;;;;;;-9.85;65.02;97814.38;6297902;28;20393;-68
2022/12/28 04:38:15;;;;;;;;;;;;;;;-9.88;64.90;97811.75;6297572;28;20061;-68
2022/12/28 04:41:18;;;;;;;;;;;;;;;-9.85;65.19;97811.84;6297811;28;19927;-67
2022/12/28 04:44:21;;;;;;;;;;;;;;;-9.80;65.00;97805.19;6297625;28;19928;-68
2022/12/28 04:47:24;;;;;;;;;;;;;;;-9.88;64.81;97807.50;6297816;28;19916;-67
2022/12/28 04:50:28;;;;;;;;;;;;;;;-9.83;64.98;97808.50;6298249;28;19920;-68
2022/12/28 04:53:34;;;;;;;;;;;;;;;-9.76;64.84;97815.53;6297588;28;19916;-70
2022/12/28 04:56:35;;;;;;;;;;;;;;;-9.64;64.84;97827.75;6297313;28;19931;-68
2022/12/28 04:59:39;;;;;;;;;;;;;;;-9.56;65.04;97826.31;6297368;28;19920;-69
2022/12/28 05:02:40;;;;;;;;;;;;;;;-9.43;64.86;97826.66;6297205;28;20328;-67
2022/12/28 05:05:43;;;;;;;;;;;;;;;-9.34;64.65;97817.59;6297949;28;20006;-69
2022/12/28 05:08:50;;;;;;;;;;;;;;;-9.28;64.52;97822.00;6296162;28;20050;-68
2022/12/28 05:11:59;;;;;;;;;;;;;;;-9.14;64.37;97824.91;6297833;28;20022;-68
2022/12/28 05:15:00;;;;;;;;;;;;;;;-8.96;64.67;97829.66;6296905;28;19916;-68
2022/12/28 05:18:07;;;;;;;;;;;;;;;-8.83;64.33;97834.25;6297589;28;19927;-68
2022/12/28 05:21:21;;;;;;;;;;;;;;;-8.69;64.26;97832.06;6296497;28;19920;-68
2022/12/28 05:24:23;;;;;;;;;;;;;;;-8.60;64.42;97833.19;6296192;28;20074;-69
2022/12/28 05:27:24;;;;;;;;;;;;;;;-8.47;64.46;97833.47;6296483;28;20001;-68
2022/12/28 05:30:27;;;;;;;;;;;;;;;-8.34;64.03;97838.03;6297072;28;20305;-68
2022/12/28 05:33:30;;;;;;;;;;;;;;;-8.30;63.38;97833.84;6296483;28;19960;-68
2022/12/28 05:36:36;;;;;;;;;;;;;;;-8.26;63.64;97841.63;6296867;28;19920;-68
2022/12/28 05:39:40;;;;;;;;;;;;;;;-8.21;63.85;97844.28;6296787;28;20412;-68
2022/12/28 05:42:42;;;;;;;;;;;;;;;-8.14;64.10;97847.03;6295728;28;19987;-68
2022/12/28 05:45:43;;;;;;;;;;;;;;;-8.08;63.83;97850.56;6296167;28;20043;-67
2022/12/28 05:48:51;;;;;;;;;;;;;;;-8.01;63.81;97853.31;6296451;28;20305;-69
2022/12/28 05:51:58;;;;;;;;;;;;;;;-7.96;63.66;97856.81;6296417;28;20382;-68
2022/12/28 05:55:01;;;;;;;;;;;;;;;-7.89;63.69;97846.75;6296462;28;20289;-68
2022/12/28 05:58:07;;;;;;;;;;;;;;;-7.82;63.58;97844.38;6295841;28;20030;-68
2022/12/28 06:01:18;;;;;;;;;;;;;;;-7.63;62.94;97849.91;6296011;28;19920;-68
2022/12/28 06:04:21;;;;;;;;;;;;;;;-7.59;62.67;97841.47;6295722;28;19920;-69
2022/12/28 06:07:22;;;;;;;;;;;;;;;-7.53;62.63;97846.69;6295367;28;20001;-69
2022/12/28 06:10:23;;;;;;;;;;;;;;;-7.44;62.73;97849.47;6295699;28;19924;-68
2022/12/28 06:13:26;;;;;;;;;;;;;;;-7.38;62.32;97847.03;6296288;28;19966;-68
2022/12/28 06:16:31;;;;;;;;;;;;;;;-7.33;62.38;97849.69;6295598;28;19920;-69
2022/12/28 06:19:35;;;;;;;;;;;;;;;-7.28;62.14;97842.97;6295900;28;19935;-68
2022/12/28 06:22:38;;;;;;;;;;;;;;;-7.31;61.58;97848.03;6295882;28;20420;-68
2022/12/28 06:25:40;;;;;;;;;;;;;;;-7.25;61.93;97843.88;6295917;28;19920;-68
2022/12/28 06:28:41;;;;;;;;;;;;;;;-7.10;61.99;97852.72;6295876;28;20058;-69
2022/12/28 06:31:49;;;;;;;;;;;;;;;-6.94;61.92;97854.75;6295939;28;19920;-69
2022/12/28 06:34:55;;;;;;;;;;;;;;;-6.92;62.41;97855.66;6295834;28;19920;-68
2022/12/28 06:37:56;;;;;;;;;;;;;;;-6.87;61.67;97854.03;6295414;28;19994;-69
2022/12/28 06:41:02;;;;;;;;;;;;;;;-6.79;62.24;97851.63;6295834;28;20389;-69
2022/12/28 06:44:09;;;;;;;;;;;;;;;-6.68;62.17;97852.69;6295731;28;19920;-68
2022/12/28 06:47:12;;;;;;;;;;;;;;;-6.56;62.01;97846.94;6295347;28;19920;-68
2022/12/28 06:50:18;;;;;;;;;;;;;;;-6.47;61.87;97852.22;6295663;28;20404;-68
2022/12/28 06:53:21;;;;;;;;;;;;;;;-6.45;61.77;97849.69;6295424;28;19920;-68
2022/12/28 06:56:32;;;;;;;;;;;;;;;-6.34;61.51;97849.03;6295346;28;19920;-70
2022/12/28 06:59:35;;;;;;;;;;;;;;;-6.21;61.16;97839.00;6295540;28;19920;-68
2022/12/28 07:02:36;;;;;;;;;;;;;;;-6.08;61.36;97846.06;6295181;28;19920;-69
2022/12/28 07:05:39;;;;;;;;;;;;;;;-6.04;61.27;97842.69;6295150;28;19943;-70
2022/12/28 07:08:43;;;;;;;;;;;;;;;-5.90;60.52;97841.16;6294345;28;19927;-69
2022/12/28 07:11:48;;;;;;;;;;;;;;;-5.91;60.28;97848.84;6295031;28;19986;-69
2022/12/28 07:14:52;;;;;;;;;;;;;;;-5.87;60.18;97846.34;6295187;28;19924;-69
2022/12/28 07:17:53;;;;;;;;;;;;;;;-5.66;60.84;97850.94;6295269;28;19927;-69
2022/12/28 07:21:10;;;;;;;;;;;;;;;-5.50;59.78;97851.16;6294920;28;20382;-69
2022/12/28 07:24:15;;;;;;;;;;;;;;;-5.39;59.62;97846.16;6295258;28;20413;-70
2022/12/28 07:27:16;;;;;;;;;;;;;;;-5.34;60.03;97840.25;6294892;28;19920;-70
2022/12/28 07:30:17;;;;;;;;;;;;;;;-5.17;59.90;97840.47;6295017;28;20011;-68
2022/12/28 07:33:24;;;;;;;;;;;;;;;-4.93;59.67;97844.19;6299403;28;20016;-68
2022/12/28 07:36:29;;;;;;;;;;;;;;;-4.75;59.18;97840.13;6299447;28;19927;-67
2022/12/28 07:39:30;;;;;;;;;;;;;;;-4.66;58.73;97829.09;6298897;28;20015;-68
2022/12/28 07:42:33;;;;;;;;;;;;;;;-4.64;58.70;97827.41;6299634;28;19920;-69
2022/12/28 07:45:37;;;;;;;;;;;;;;;-4.45;58.50;97837.84;6299500;28;20373;-68
2022/12/28 07:48:41;;;;;;;;;;;;;;;-4.16;58.22;97826.16;6299444;28;19920;-68
2022/12/28 07:51:44;;;;;;;;;;;;;;;-3.94;57.87;97821.16;6298975;28;19943;-67
2022/12/28 07:54:45;;;;;;;;;;;;;;;-3.94;57.16;97823.72;6298586;28;19927;-68
2022/12/28 07:57:46;;;;;;;;;;;;;;;-3.86;57.52;97820.38;6299060;28;19920;-68
2022/12/28 08:00:48;;;;;;;;;;;;;;;-3.67;57.08;97823.94;6298684;28;19927;-67
2022/12/28 08:03:53;;;;;;;;;;;;;;;-3.74;56.96;97829.88;6298610;28;19921;-69
2022/12/28 08:06:54;;;;;;;;;;;;;;;-3.85;57.21;97826.34;6298952;28;20380;-69
2022/12/28 08:09:55;;;;;;;;;;;;;;;-4.06;57.24;97817.63;6298820;28;19995;-68
2022/12/28 08:12:57;;;;;;;;;;;;;;;-4.08;57.37;97821.03;6298619;28;20089;-68
2022/12/28 08:16:01;;;;;;;;;;;;;;;-4.08;57.47;97819.38;6298823;28;19942;-68
2022/12/28 08:19:03;;;;;;;;;;;;;;;-4.15;57.14;97832.13;6298548;28;19938;-69
2022/12/28 08:22:06;;;;;;;;;;;;;;;-4.27;57.19;97827.75;6298035;28;19920;-68
2022/12/28 08:25:07;;;;;;;;;;;;;;;-4.37;56.95;97836.22;6298437;28;20305;-68
2022/12/28 08:28:10;;;;;;;;;;;;;;;-4.51;57.48;97826.66;6298264;28;20405;-69
2022/12/28 08:31:15;;;;;;;;;;;;;;;-4.60;57.58;97821.44;6298559;28;19921;-67
2022/12/28 08:34:17;;;;;;;;;;;;;;;-4.65;57.78;97825.66;6297972;28;19920;-68
2022/12/28 08:37:21;;;;;;;;;;;;;;;-4.60;57.59;97824.00;6296105;28;19931;-69
2022/12/28 08:40:28;;;;;;;;;;;;;;;-4.26;57.67;97829.47;6298197;28;20408;-68
2022/12/28 08:43:30;;;;;;;;;;;;;;;-4.19;56.80;97820.97;6295856;28;20305;-70
2022/12/28 08:46:36;;;;;;;;;;;;;;;-4.41;56.36;97826.78;6298132;28;20451;-67
2022/12/28 08:49:39;;;;;;;;;;;;;;;-4.65;56.78;97815.38;6298268;28;19924;-70
2022/12/28 08:52:43;;;;;;;;;;;;;;;-4.88;57.19;97816.88;6297917;28;19920;-69
2022/12/28 08:55:47;;;;;;;;;;;;;;;-5.18;57.19;97823.34;6297670;28;19920;-69
2022/12/28 08:58:50;;;;;;;;;;;;;;;-5.30;57.54;97818.06;6297579;28;19928;-69
2022/12/28 09:01:54;;;;;;;;;;;;;;;-5.32;57.62;97809.47;6297599;28;20010;-69
2022/12/28 09:04:57;;;;;;;;;;;;;;;-5.39;57.57;97802.56;6297741;28;19920;-68
2022/12/28 09:08:01;;;;;;;;;;;;;;;-5.38;57.45;97810.25;6297594;28;19927;-68
2022/12/28 09:11:10;;;;;;;;;;;;;;;-5.40;57.53;97813.69;6297705;28;19924;-69
2022/12/28 09:14:12;;;;;;;;;;;;;;;-5.40;57.68;97811.13;6295681;28;19920;-68
2022/12/28 09:17:15;;;;;;;;;;;;;;;-5.41;57.56;97815.34;6297184;28;19924;-68
2022/12/28 09:20:18;;;;;;;;;;;;;;;-5.42;57.02;97804.25;6295916;28;19920;-69
2022/12/28 09:23:22;;;;;;;;;;;;;;;-5.39;57.12;97818.81;6296999;28;19920;-69
2022/12/28 09:26:24;;;;;;;;;;;;;;;-5.33;57.23;97818.88;6296779;28;19920;-67
2022/12/28 09:29:25;;;;;;;;;;;;;;;-5.31;57.14;97818.91;6295971;28;20381;-68
2022/12/28 09:32:28;;;;;;;;;;;;;;;-5.40;57.15;97818.81;6296822;28;19920;-69
2022/12/28 09:35:31;;;;;;;;;;;;;;;-5.56;57.13;97818.59;6297021;28;19921;-68
2022/12/28 09:38:37;;;;;;;;;;;;;;;-5.61;57.08;97807.41;6296741;28;19924;-68
2022/12/28 09:41:47;;;;;;;;;;;;;;;-5.62;57.07;97810.81;6296285;28;20029;-68
2022/12/28 09:44:54;;;;;;;;;;;;;;;-5.77;56.91;97802.94;6296650;28;20389;-69
2022/12/28 09:47:58;;;;;;;;;;;;;;;-5.89;57.18;97801.91;6295949;28;19920;-68
2022/12/28 09:51:03;;;;;;;;;;;;;;;-5.96;57.58;97800.09;6296630;28;20388;-68
2022/12/28 09:54:07;;;;;;;;;;;;;;;-5.90;57.11;97800.16;6296359;28;19920;-69
2022/12/28 09:57:17;;;;;;;;;;;;;;;-6.07;57.54;97793.97;6296052;28;19931;-70
2022/12/28 10:00:19;;;;;;;;;;;;;;;-6.19;57.22;97791.22;6296243;28;19920;-69
2022/12/28 10:03:25;;;;;;;;;;;;;;;-6.34;57.17;97795.25;6296022;28;19921;-69
2022/12/28 10:06:31;;;;;;;;;;;;;;;-6.40;57.78;97791.72;6294726;28;19920;-69
2022/12/28 10:09:35;;;;;;;;;;;;;;;-6.40;57.78;97786.59;6296230;28;20015;-68
2022/12/28 10:12:42;;;;;;;;;;;;;;;-6.38;57.64;97784.94;6296079;28;19920;-70
2022/12/28 10:15:43;;;;;;;;;;;;;;;-6.46;57.52;97777.13;6295806;28;19921;-68
2022/12/28 10:18:51;;;;;;;;;;;;;;;-6.62;57.80;97782.84;6296108;28;20014;-69
2022/12/28 10:22:09;;;;;;;;;;;;;;;-6.91;57.83;97788.28;6296069;28;20062;-69
2022/12/28 10:25:16;;;;;;;;;;;;;;;-7.12;57.97;97777.66;6296015;28;20312;-68
2022/12/28 10:28:19;;;;;;;;;;;;;;;-7.21;57.83;97780.06;6295473;28;20317;-70
2022/12/28 10:31:37;;;;;;;;;;;;;;;-7.29;58.31;97780.75;6295817;28;19920;-70
2022/12/28 10:34:52;;;;;;;;;;;;;;;-7.46;57.97;97787.22;6295758;28;20393;-68
2022/12/28 10:38:01;;;;;;;;;;;;;;;-7.50;58.75;97785.41;6295032;28;19920;-69
2022/12/28 10:41:04;;;;;;;;;;;;;;;-7.56;59.02;97777.63;6295298;28;19927;-68
2022/12/28 10:44:11;;;;;;;;;;;;;;;-7.60;58.43;97780.97;6295615;28;19925;-69
2022/12/28 10:47:21;;;;;;;;;;;;;;;-7.65;58.50;97785.09;6295438;28;20389;-69
2022/12/28 10:50:39;;;;;;;;;;;;;;;-7.62;58.77;97786.03;6295739;28;19916;-69
2022/12/28 10:53:41;;;;;;;;;;;;;;;-7.61;59.01;97797.09;6295555;28;20353;-69
2022/12/28 10:56:48;;;;;;;;;;;;;;;-7.64;59.26;97791.94;6295305;28;20058;-68
2022/12/28 10:59:52;;;;;;;;;;;;;;;-7.65;59.01;97785.97;6295267;28;20126;-69
2022/12/28 11:02:55;;;;;;;;;;;;;;;-7.66;59.10;97783.41;6295698;28;20293;-69
2022/12/28 11:06:09;;;;;;;;;;;;;;;-7.65;59.34;97787.66;6296150;28;20389;-69
2022/12/28 11:09:13;;;;;;;;;;;;;;;-7.67;59.35;97787.66;6300675;28;20400;-68
2022/12/28 11:12:16;;;;;;;;;;;;;;;-7.69;59.79;97800.38;6300496;28;19920;-69
2022/12/28 11:15:21;;;;;;;;;;;;;;;-7.79;59.73;97801.00;6300267;28;20305;-69
2022/12/28 11:18:23;;;;;;;;;;;;;;;-7.87;59.84;97799.97;6299501;28;19921;-68
2022/12/28 11:21:24;;;;;;;;;;;;;;;-7.85;59.72;97797.44;6299811;28;19926;-69
2022/12/28 11:24:27;;;;;;;;;;;;;;;-7.85;59.87;97800.88;6298784;28;20284;-69
2022/12/28 11:27:33;;;;;;;;;;;;;;;-7.86;59.93;97800.84;6299882;28;19927;-69
2022/12/28 11:30:34;;;;;;;;;;;;;;;-7.95;59.90;97797.25;6299696;28;19927;-69
2022/12/28 11:33:43;;;;;;;;;;;;;;;-7.99;60.35;97809.91;6299639;28;19920;-69
2022/12/28 11:36:47;;;;;;;;;;;;;;;-8.10;60.45;97806.25;6298441;28;19920;-69
2022/12/28 11:39:49;;;;;;;;;;;;;;;-8.15;60.70;97814.69;6299275;28;19951;-68
2022/12/28 11:42:54;;;;;;;;;;;;;;;-8.19;60.40;97815.41;6299561;28;19924;-68
2022/12/28 11:46:01;;;;;;;;;;;;;;;-8.26;60.59;97811.00;6299643;28;19920;-68
2022/12/28 11:49:02;;;;;;;;;;;;;;;-8.32;60.50;97812.53;6298731;28;19920;-70
2022/12/28 11:52:16;;;;;;;;;;;;;;;-8.41;60.55;97810.66;6299403;28;19920;-68
2022/12/28 11:55:25;;;;;;;;;;;;;;;-8.45;61.05;97808.88;6299406;28;19924;-69
2022/12/28 11:58:29;;;;;;;;;;;;;;;-8.60;61.03;97810.22;6298961;28;19974;-69
2022/12/28 12:01:39;;;;;;;;;;;;;;;-8.62;61.15;97811.84;6299146;28;20008;-68
2022/12/28 12:04:45;;;;;;;;;;;;;;;-8.65;61.02;97816.88;6299124;28;19928;-68
2022/12/28 12:07:46;;;;;;;;;;;;;;;-8.71;61.32;97816.72;6298315;28;19920;-69
2022/12/28 12:11:19;;;;;;;;;;;;;;;-8.77;60.76;97814.03;6298954;28;19924;-68
2022/12/28 12:14:22;;;;;;;;;;;;;;;-8.79;60.79;97813.13;6285612;28;19920;-68
2022/12/28 12:17:26;;;;;;;;;;;;;;;-8.73;61.01;97813.25;6298541;28;20014;-68
2022/12/28 12:20:43;;;;;;;;;;;;;;;-8.78;61.53;97819.94;6298774;28;20344;-68
2022/12/28 12:23:53;;;;;;;;;;;;;;;-8.82;61.04;97818.13;6298561;28;20360;-68
2022/12/28 12:27:00;;;;;;;;;;;;;;;-8.79;61.37;97823.31;6298439;28;20010;-68
2022/12/28 12:30:04;;;;;;;;;;;;;;;-8.81;61.34;97824.94;6296760;28;20340;-68
2022/12/28 12:33:10;;;;;;;;;;;;;;;-8.70;61.61;97828.66;6298315;28;19927;-69
2022/12/28 12:36:29;;;;;;;;;;;;;;;-8.74;61.73;97831.97;6298336;28;20393;-68
2022/12/28 12:39:36;;;;;;;;;;;;;;;-8.74;61.54;97837.06;6298055;28;19990;-68
2022/12/28 12:42:52;;;;;;;;;;;;;;;-8.70;61.78;97836.31;6297912;28;19931;-67
2022/12/28 12:45:56;;;;;;;;;;;;;;;-8.72;62.09;97840.50;6298288;28;20021;-69
2022/12/28 12:49:12;;;;;;;;;;;;;;;-8.73;61.91;97843.88;6297618;28;19921;-69
2022/12/28 12:52:25;;;;;;;;;;;;;;;-8.71;62.13;97837.13;6297559;28;19926;-69
2022/12/28 12:55:44;;;;;;;;;;;;;;;-8.68;62.16;97837.22;6298010;28;19959;-69
2022/12/28 12:58:47;;;;;;;;;;;;;;;-8.66;61.81;97834.69;6296786;28;20343;-68
2022/12/28 13:02:11;;;;;;;;;;;;;;;-8.64;61.83;97844.09;6297593;28;19927;-68
2022/12/28 13:05:16;;;;;;;;;;;;;;;-8.64;62.38;97843.25;6269079;28;20270;-68
2022/12/28 13:08:31;;;;;;;;;;;;;;;-8.62;61.76;97845.03;6297395;28;19920;-68
2022/12/28 13:11:37;;;;;;;;;;;;;;;-8.61;62.24;97839.09;6297677;28;19959;-68
2022/12/28 13:14:43;;;;;;;;;;;;;;;-8.62;62.18;97836.50;6297432;28;19926;-69
2022/12/28 13:17:58;;;;;;;;;;;;;;;-8.67;62.49;97844.03;6296555;28;20348;-68
2022/12/28 13:21:03;;;;;;;;;;;;;;;-8.67;61.94;97838.06;6296825;28;19920;-68
2022/12/28 13:24:19;;;;;;;;;;;;;;;-8.66;62.01;97832.13;6296808;28;19943;-68
2022/12/28 13:27:21;;;;;;;;;;;;;;;-8.64;61.94;97828.81;6296968;28;19920;-68
2022/12/28 13:30:23;;;;;;;;;;;;;;;-8.69;61.74;97835.50;6295796;28;20016;-68
2022/12/28 13:33:29;;;;;;;;;;;;;;;-8.69;61.92;97835.50;6296593;28;19920;-68
2022/12/28 13:36:30;;;;;;;;;;;;;;;-8.66;62.04;97839.78;6296625;28;20340;-68
2022/12/28 13:39:34;;;;;;;;;;;;;;;-8.64;62.21;97828.81;6296688;28;19920;-68
2022/12/28 13:43:07;;;;;;;;;;;;;;;-8.61;62.62;97839.09;6296545;28;19920;-68
2022/12/28 13:46:11;;;;;;;;;;;;;;;-8.57;62.54;97841.75;6283391;28;19924;-68
2022/12/28 13:49:17;;;;;;;;;;;;;;;-8.54;62.55;97849.47;6296751;28;19924;-69
2022/12/28 13:52:22;;;;;;;;;;;;;;;-8.52;62.37;97846.13;6295862;28;19920;-68
2022/12/28 13:55:31;;;;;;;;;;;;;;;-8.52;62.14;97848.69;6296344;28;19920;-69
2022/12/28 13:58:41;;;;;;;;;;;;;;;-8.54;62.39;97839.25;6295234;28;20055;-68
2022/12/28 14:01:43;;;;;;;;;;;;;;;-8.54;62.12;97835.03;6294738;28;19928;-68
2022/12/28 14:04:45;;;;;;;;;;;;;;;-8.59;62.56;97842.53;6294785;28;20408;-68
2022/12/28 14:07:47;;;;;;;;;;;;;;;-8.58;62.57;97838.28;6294587;28;20113;-68
2022/12/28 14:10:49;;;;;;;;;;;;;;;-8.56;62.71;97838.34;6295017;28;19991;-71
2022/12/28 14:13:55;;;;;;;;;;;;;;;-8.53;62.44;97833.31;6295246;28;20344;-68
2022/12/28 14:16:57;;;;;;;;;;;;;;;-8.59;62.74;97832.34;6294229;28;19927;-68
2022/12/28 14:19:58;;;;;;;;;;;;;;;-8.57;62.64;97829.84;6293866;28;20041;-69
2022/12/28 14:23:20;;;;;;;;;;;;;;;-8.55;62.81;97828.16;6294576;28;19921;-69
2022/12/28 14:26:45;;;;;;;;;;;;;;;-8.52;62.66;97832.50;6290904;28;19927;-68
2022/12/28 14:29:54;;;;;;;;;;;;;;;-8.52;62.81;97829.94;6295008;28;20010;-68
2022/12/28 14:33:03;;;;;;;;;;;;;;;-8.50;62.71;97833.41;6294791;28;20424;-68
2022/12/28 14:36:09;;;;;;;;;;;;;;;-8.49;62.56;97822.34;6293652;28;20302;-68
2022/12/28 14:39:23;;;;;;;;;;;;;;;-8.47;62.63;97828.38;6294774;28;19924;-69
2022/12/28 14:42:26;;;;;;;;;;;;;;;-8.48;62.77;97831.75;6293052;28;20302;-68
2022/12/28 14:45:38;;;;;;;;;;;;;;;-8.55;62.37;97822.22;6294563;28;19921;-68
2022/12/28 14:48:41;;;;;;;;;;;;;;;-8.62;63.01;97832.25;6293705;28;19920;-69
2022/12/28 14:51:44;;;;;;;;;;;;;;;-8.65;62.39;97823.69;6294014;28;19928;-68
2022/12/28 14:54:50;;;;;;;;;;;;;;;-8.72;62.51;97820.09;6294416;28;19925;-68
2022/12/28 14:57:59;;;;;;;;;;;;;;;-8.74;62.46;97826.00;6235392;28;1688627;-70
2022/12/28 15:01:01;;;;;;;;;;;;;;;-8.75;62.49;97820.00;6294775;28;20405;-68
2022/12/28 15:04:05;;;;;;;;;;;;;;;-8.81;62.75;97815.59;6295311;28;19920;-68
2022/12/28 15:07:11;;;;;;;;;;;;;;;-8.83;62.32;97814.72;6295337;28;19924;-69
2022/12/28 15:10:12;;;;;;;;;;;;;;;-8.86;62.66;97816.31;6294994;28;20401;-70
2022/12/28 15:13:14;;;;;;;;;;;;;;;-8.85;63.22;97818.06;6295159;28;19962;-68
2022/12/28 15:16:18;;;;;;;;;;;;;;;-8.88;62.59;97823.94;6295164;28;20400;-68
2022/12/28 15:19:22;;;;;;;;;;;;;;;-8.92;62.60;97818.69;6295083;28;20313;-68
2022/12/28 15:22:27;;;;;;;;;;;;;;;-8.94;62.86;97812.72;6295392;28;19920;-69
2022/12/28 15:25:31;;;;;;;;;;;;;;;-8.94;62.88;97817.81;6295375;28;20054;-68
2022/12/28 15:28:33;;;;;;;;;;;;;;;-8.95;62.98;97826.28;6295273;28;20386;-68
2022/12/28 15:31:38;;;;;;;;;;;;;;;-8.96;62.84;97822.00;6295069;28;19920;-68
2022/12/28 15:34:42;;;;;;;;;;;;;;;-8.98;62.70;97819.41;6294937;28;19920;-68
2022/12/28 15:37:47;;;;;;;;;;;;;;;-8.97;62.56;97812.63;6295157;28;20010;-68
2022/12/28 15:40:54;;;;;;;;;;;;;;;-9.01;62.75;97818.47;6294997;28;19978;-68
2022/12/28 15:43:57;;;;;;;;;;;;;;;-9.07;62.63;97816.63;6292526;28;19927;-69
2022/12/28 15:46:58;;;;;;;;;;;;;;;-9.10;62.68;97822.50;6294463;28;19959;-68
2022/12/28 15:50:02;;;;;;;;;;;;;;;-9.13;62.19;97827.50;6293427;28;19920;-68
2022/12/28 15:53:07;;;;;;;;;;;;;;;-9.26;62.49;97822.88;6296914;28;19924;-68
2022/12/28 15:56:37;;;;;;;;;;;;;;;-9.29;62.84;97820.25;6298751;28;20054;-67
2022/12/28 15:59:41;;;;;;;;;;;;;;;-9.34;62.87;97826.91;6245207;28;19921;-68
2022/12/28 16:02:45;;;;;;;;;;;;;;;-9.35;62.55;97826.03;6249531;28;20297;-69
2022/12/28 16:05:48;;;;;;;;;;;;;;;-9.32;62.65;97832.91;6249639;28;20310;-69
2022/12/28 16:08:52;;;;;;;;;;;;;;;-9.27;62.87;97823.72;6249455;28;19925;-68
2022/12/28 16:11:56;;;;;;;;;;;;;;;-9.28;62.72;97812.66;6249359;28;20379;-68
2022/12/28 16:14:59;;;;;;;;;;;;;;;-9.30;62.76;97816.00;6249238;28;19920;-68
2022/12/28 16:18:04;;;;;;;;;;;;;;;-9.30;62.79;97823.63;6249021;28;20367;-68
2022/12/28 16:21:09;;;;;;;;;;;;;;;-9.26;62.68;97810.13;6249095;28;20398;-69
2022/12/28 16:24:10;;;;;;;;;;;;;;;-9.28;62.77;97814.34;6248912;28;19924;-68
2022/12/28 16:27:14;;;;;;;;;;;;;;;-9.26;62.50;97815.25;6248418;28;19921;-69
2022/12/28 16:30:18;;;;;;;;;;;;;;;-9.33;62.59;97823.56;6249091;28;20338;-69
2022/12/28 16:33:24;;;;;;;;;;;;;;;-9.31;62.57;97827.00;6248984;28;20382;-69